createdAt,value
2019-05-06T00:00:35.101Z,3.27
2019-05-06T00:03:05.162Z,4.20
2019-05-06T00:05:34.848Z,3.50
2019-05-06T00:08:04.415Z,3.20
2019-05-06T00:10:36.092Z,3.53
2019-05-06T00:13:05.668Z,3.93
2019-05-06T00:15:35.737Z,4.73
2019-05-06T00:18:05.269Z,3.95
2019-05-06T00:20:35.094Z,3.87
2019-05-06T00:23:10.546Z,4.43
2019-05-06T00:25:57.027Z,4.00
2019-05-06T00:28:44.670Z,4.50
2019-05-06T00:31:16.670Z,4.10
2019-05-06T00:33:46.582Z,3.40
2019-05-06T00:36:16.588Z,4.33
2019-05-06T00:38:49.468Z,4.08
2019-05-06T00:41:27.998Z,3.73
2019-05-06T00:43:57.475Z,4.17
2019-05-06T00:46:26.946Z,4.20
2019-05-06T00:48:56.509Z,4.22
2019-05-06T00:53:54.534Z,4.07
2019-05-06T00:56:24.453Z,4.20
2019-05-06T00:58:54.523Z,4.20
2019-05-06T01:01:29.333Z,4.35
2019-05-06T01:03:55.195Z,4.50
2019-05-06T01:06:24.779Z,4.50
2019-05-06T01:08:54.547Z,4.17
2019-05-06T01:11:24.229Z,4.07
2019-05-06T01:14:00.231Z,4.10
2019-05-06T01:16:30.429Z,3.52
2019-05-06T01:19:00.090Z,3.70
2019-05-06T01:21:29.907Z,3.97
2019-05-06T01:23:59.418Z,3.67
2019-05-06T01:26:28.895Z,4.30
2019-05-06T01:28:58.387Z,3.77
2019-05-06T01:31:39.737Z,3.03
2019-05-06T01:33:59.049Z,4.83
2019-05-06T01:36:28.544Z,4.30
2019-05-06T01:39:18.137Z,4.17
2019-05-06T01:42:05.417Z,3.65
2019-05-06T01:44:36.103Z,4.20
2019-05-06T01:47:05.576Z,4.20
2019-05-06T01:49:35.103Z,4.77
2019-05-06T01:52:04.964Z,3.22
2019-05-06T01:54:34.612Z,3.87
2019-05-06T01:57:04.594Z,3.80
2019-05-06T01:59:34.337Z,3.65
2019-05-06T02:02:04.605Z,3.70
2019-05-06T02:04:34.133Z,4.05
2019-05-06T02:07:04.001Z,2.98
2019-05-06T02:09:34.271Z,3.40
2019-05-06T02:12:04.841Z,3.52
2019-05-06T02:14:34.543Z,3.02
2019-05-06T02:17:04.049Z,2.95
2019-05-06T02:19:34.731Z,3.60
2019-05-06T02:22:13.474Z,3.73
2019-05-06T02:24:53.604Z,3.30
2019-05-06T02:27:24.772Z,3.33
2019-05-06T02:30:15.266Z,3.77
2019-05-06T02:32:50.783Z,4.43
2019-05-06T02:35:26.585Z,3.70
2019-05-06T02:37:56.217Z,4.33
2019-05-06T02:40:26.947Z,3.87
2019-05-06T02:42:57.678Z,4.58
2019-05-06T02:45:27.826Z,3.45
2019-05-06T02:48:13.771Z,3.53
2019-05-06T02:51:03.668Z,3.60
2019-05-06T02:53:33.904Z,4.30
2019-05-06T02:56:04.625Z,3.47
2019-05-06T02:58:34.231Z,4.20
2019-05-06T03:01:04.482Z,3.87
2019-05-06T03:03:34.185Z,3.92
2019-05-06T03:06:04.381Z,3.67
2019-05-06T03:08:34.569Z,4.67
2019-05-06T03:11:04.504Z,4.00
2019-05-06T03:13:35.685Z,4.50
2019-05-06T03:16:05.831Z,3.58
2019-05-06T03:18:36.605Z,3.90
2019-05-06T03:21:28.281Z,4.47
2019-05-06T03:24:19.608Z,3.97
2019-05-06T03:26:56.201Z,3.30
2019-05-06T03:29:25.020Z,4.50
2019-05-06T03:31:56.558Z,3.40
2019-05-06T03:34:49.047Z,4.35
2019-05-06T03:36:56.704Z,4.87
2019-05-06T03:39:26.669Z,4.00
2019-05-06T03:41:56.214Z,4.50
2019-05-06T03:44:25.704Z,4.55
2019-05-06T03:47:14.041Z,3.77
2019-05-06T03:49:49.994Z,4.07
2019-05-06T03:52:17.513Z,3.55
2019-05-06T03:54:47.054Z,4.22
2019-05-06T03:57:17.633Z,5.30
2019-05-06T03:59:47.139Z,3.60
2019-05-06T04:02:17.699Z,3.80
2019-05-06T04:04:47.227Z,4.72
2019-05-06T04:07:16.877Z,4.97
2019-05-06T04:09:46.369Z,4.13
2019-05-06T04:12:15.971Z,4.53
2019-05-06T04:14:45.548Z,4.20
2019-05-06T04:17:34.167Z,3.75
2019-05-06T04:20:17.026Z,4.43
2019-05-06T04:23:13.409Z,4.20
2019-05-06T04:26:03.316Z,4.47
2019-05-06T04:28:34.317Z,4.33
2019-05-06T04:31:04.182Z,4.47
2019-05-06T04:33:34.352Z,4.10
2019-05-06T04:36:04.229Z,4.43
2019-05-06T04:38:34.035Z,3.67
2019-05-06T04:41:03.483Z,3.73
2019-05-06T04:43:33.788Z,4.17
2019-05-06T04:46:03.483Z,4.67
2019-05-06T04:48:34.072Z,4.50
2019-05-06T04:51:03.836Z,4.67
2019-05-06T04:53:34.111Z,4.53
2019-05-06T04:56:04.154Z,5.97
2019-05-06T04:58:33.985Z,6.10
2019-05-06T05:01:04.288Z,5.27
2019-05-06T05:03:34.266Z,6.27
2019-05-06T05:06:05.869Z,4.17
2019-05-06T05:08:38.068Z,5.20
2019-05-06T05:11:27.511Z,4.30
2019-05-06T05:14:07.512Z,4.50
2019-05-06T05:16:42.651Z,4.90
2019-05-06T05:19:13.233Z,4.65
2019-05-06T05:21:42.998Z,5.20
2019-05-06T05:24:12.514Z,5.20
2019-05-06T05:26:45.054Z,5.00
2019-05-06T05:29:13.731Z,4.90
2019-05-06T05:31:43.736Z,4.60
2019-05-06T05:34:13.704Z,4.03
2019-05-06T05:36:43.412Z,4.75
2019-05-06T05:39:12.903Z,4.83
2019-05-06T05:41:42.990Z,4.40
2019-05-06T05:44:25.416Z,4.20
2019-05-06T05:46:54.985Z,4.00
2019-05-06T05:49:35.020Z,4.63
2019-05-06T05:52:04.560Z,5.00
2019-05-06T05:54:34.051Z,4.70
2019-05-06T05:57:03.531Z,4.47
2019-05-06T05:59:33.166Z,5.00
2019-05-06T06:02:03.870Z,4.07
2019-05-06T06:04:33.542Z,5.27
2019-05-06T06:07:03.092Z,4.87
2019-05-06T06:09:37.230Z,4.93
2019-05-06T06:12:08.143Z,4.03
2019-05-06T06:14:56.052Z,5.00
2019-05-06T06:17:35.667Z,4.80
2019-05-06T06:20:24.828Z,4.90
2019-05-06T06:22:59.208Z,5.92
2019-05-06T06:25:28.825Z,4.13
2019-05-06T06:27:58.376Z,4.50
2019-05-06T06:30:37.901Z,4.50
2019-05-06T06:33:07.451Z,4.62
2019-05-06T06:36:07.879Z,4.80
2019-05-06T06:38:58.693Z,5.13
2019-05-06T06:41:28.268Z,4.73
2019-05-06T06:44:02.312Z,5.20
2019-05-06T06:46:32.401Z,5.03
2019-05-06T06:49:03.241Z,5.47
2019-05-06T06:51:33.189Z,4.93
2019-05-06T06:54:02.739Z,4.93
2019-05-06T06:57:03.148Z,5.53
2019-05-06T06:59:26.647Z,4.23
2019-05-06T07:02:03.005Z,5.10
2019-05-06T07:04:37.321Z,6.10
2019-05-06T07:07:07.291Z,4.70
2019-05-06T07:09:36.756Z,4.73
2019-05-06T07:12:06.378Z,5.00
2019-05-06T07:14:36.369Z,5.27
2019-05-06T07:17:05.871Z,5.13
2019-05-06T07:19:42.259Z,4.50
2019-05-06T07:22:12.691Z,4.40
2019-05-06T07:24:43.094Z,4.63
2019-05-06T07:27:20.155Z,5.27
2019-05-06T07:29:52.082Z,4.33
2019-05-06T07:32:23.026Z,4.33
2019-05-06T07:34:53.169Z,3.97
2019-05-06T07:37:23.118Z,4.33
2019-05-06T07:39:53.603Z,3.73
2019-05-06T07:42:32.530Z,3.37
2019-05-06T07:45:22.042Z,4.17
2019-05-06T07:47:57.424Z,4.00
2019-05-06T07:50:26.936Z,3.85
2019-05-06T07:53:09.337Z,4.43
2019-05-06T07:55:39.341Z,3.40
2019-05-06T07:58:08.876Z,4.13
2019-05-06T08:00:38.525Z,4.40
2019-05-06T08:03:08.993Z,3.77
2019-05-06T08:05:51.572Z,4.35
2019-05-06T08:08:09.647Z,4.40
2019-05-06T08:10:39.226Z,4.70
2019-05-06T08:13:08.794Z,3.85
2019-05-06T08:15:38.391Z,4.47
2019-05-06T08:18:07.960Z,4.05
2019-05-06T08:20:37.509Z,4.60
2019-05-06T08:23:13.992Z,4.03
2019-05-06T08:25:54.353Z,4.23
2019-05-06T08:28:22.601Z,4.55
2019-05-06T08:30:53.614Z,3.23
2019-05-06T08:33:23.119Z,3.67
2019-05-06T08:36:07.535Z,2.83
2019-05-06T08:38:25.774Z,4.13
2019-05-06T08:40:55.294Z,4.13
2019-05-06T08:43:24.796Z,3.60
2019-05-06T08:45:54.461Z,3.50
2019-05-06T08:48:24.029Z,3.30
2019-05-06T08:51:10.178Z,3.10
2019-05-06T08:54:04.912Z,2.70
2019-05-06T08:56:34.484Z,2.87
2019-05-06T08:59:04.930Z,3.10
2019-05-06T09:01:53.334Z,2.67
2019-05-06T09:04:22.971Z,2.50
2019-05-06T09:06:53.438Z,2.57
2019-05-06T09:09:23.333Z,3.47
2019-05-06T09:11:53.634Z,2.70
2019-05-06T09:14:23.863Z,3.00
2019-05-06T09:16:54.077Z,3.57
2019-05-06T09:19:23.934Z,2.60
2019-05-06T09:21:53.947Z,3.30
2019-05-06T09:24:23.660Z,3.23
2019-05-06T09:26:58.436Z,3.55
2019-05-06T09:29:34.872Z,4.30
2019-05-06T09:32:09.151Z,5.27
2019-05-06T09:34:44.835Z,3.20
2019-05-06T09:37:14.967Z,3.98
2019-05-06T09:39:45.738Z,3.77
2019-05-06T09:42:15.645Z,2.75
2019-05-06T09:44:45.993Z,2.35
2019-05-06T09:47:37.731Z,3.05
2019-05-06T09:50:09.901Z,4.17
2019-05-06T09:52:39.538Z,3.03
2019-05-06T09:55:34.219Z,2.93
2019-05-06T09:58:05.633Z,4.23
2019-05-06T10:00:38.754Z,3.20
2019-05-06T10:03:08.324Z,3.55
2019-05-06T10:05:37.828Z,4.70
2019-05-06T10:08:07.547Z,4.70
2019-05-06T10:10:37.091Z,3.63
2019-05-06T10:13:06.652Z,2.47
2019-05-06T10:15:36.156Z,2.57
2019-05-06T10:18:09.470Z,3.20
2019-05-06T10:20:42.897Z,2.47
2019-05-06T10:23:12.967Z,3.90
2019-05-06T10:25:43.788Z,3.20
2019-05-06T10:28:33.663Z,2.50
2019-05-06T10:31:06.071Z,2.70
2019-05-06T10:33:37.268Z,3.70
2019-05-06T10:36:06.915Z,2.50
2019-05-06T10:38:55.664Z,3.75
2019-05-06T10:41:29.741Z,3.03
2019-05-06T10:44:11.386Z,3.70
2019-05-06T10:46:42.936Z,2.93
2019-05-06T10:49:13.212Z,3.10
2019-05-06T10:51:48.735Z,3.40
2019-05-06T10:54:18.486Z,3.80
2019-05-06T10:56:59.328Z,3.03
2019-05-06T10:59:28.906Z,2.60
2019-05-06T11:02:05.044Z,3.40
2019-05-06T11:04:33.160Z,3.00
2019-05-06T11:07:04.159Z,3.90
2019-05-06T11:09:34.293Z,3.80
2019-05-06T11:12:04.314Z,2.83
2019-05-06T11:14:33.992Z,3.07
2019-05-06T11:17:05.230Z,2.60
2019-05-06T11:19:36.089Z,3.07
2019-05-06T11:22:05.675Z,3.50
2019-05-06T11:24:35.155Z,3.20
2019-05-06T11:27:05.564Z,3.22
2019-05-06T11:29:36.881Z,3.92
2019-05-06T11:32:25.865Z,3.40
2019-05-06T11:35:03.899Z,3.93
2019-05-06T11:37:49.781Z,3.17
2019-05-06T11:40:17.060Z,2.90
2019-05-06T11:42:46.411Z,3.30
2019-05-06T11:45:16.132Z,3.20
2019-05-06T11:47:45.621Z,3.60
2019-05-06T11:50:16.224Z,3.22
2019-05-06T11:52:45.712Z,3.20
2019-05-06T11:55:28.057Z,3.50
2019-05-06T11:57:47.291Z,2.95
2019-05-06T12:00:19.862Z,3.33
2019-05-06T12:02:49.370Z,3.12
2019-05-06T12:05:18.999Z,3.60
2019-05-06T12:08:01.763Z,3.60
2019-05-06T12:10:19.683Z,3.60
2019-05-06T12:12:49.182Z,3.58
2019-05-06T12:15:18.762Z,3.50
2019-05-06T12:17:48.348Z,3.60
2019-05-06T12:20:17.976Z,2.77
2019-05-06T12:22:47.473Z,4.37
2019-05-06T12:25:17.056Z,3.43
2019-05-06T12:27:46.680Z,3.62
2019-05-06T12:30:23.064Z,3.60
2019-05-06T12:33:14.323Z,3.47
2019-05-06T12:35:47.697Z,3.10
2019-05-06T12:38:30.170Z,3.10
2019-05-06T12:40:54.637Z,3.23
2019-05-06T12:43:58.586Z,3.60
2019-05-06T12:46:34.026Z,3.07
2019-05-06T12:49:03.522Z,3.30
2019-05-06T12:51:33.066Z,3.17
2019-05-06T12:54:03.630Z,3.43
2019-05-06T12:56:33.229Z,2.80
2019-05-06T12:59:02.740Z,3.40
2019-05-06T13:01:34.092Z,2.47
2019-05-06T13:04:04.509Z,3.60
2019-05-06T13:06:34.460Z,2.37
2019-05-06T13:09:05.423Z,3.17
2019-05-06T13:11:36.503Z,2.70
2019-05-06T13:14:06.323Z,3.30
2019-05-06T13:16:35.928Z,2.27
2019-05-06T13:19:06.063Z,3.77
2019-05-06T13:21:36.159Z,2.50
2019-05-06T13:24:06.952Z,2.50
2019-05-06T13:26:36.548Z,2.77
2019-05-06T13:29:13.003Z,2.67
2019-05-06T13:31:43.596Z,2.50
2019-05-06T13:34:17.859Z,2.25
2019-05-06T13:36:48.016Z,2.40
2019-05-06T13:39:17.604Z,3.10
2019-05-06T13:41:47.107Z,2.53
2019-05-06T13:44:17.847Z,2.30
2019-05-06T13:46:54.762Z,2.70
2019-05-06T13:49:58.606Z,2.43
2019-05-06T13:52:33.631Z,2.50
2019-05-06T13:55:03.156Z,2.53
2019-05-06T13:57:32.614Z,3.20
2019-05-06T14:00:03.138Z,2.85
2019-05-06T14:02:55.496Z,2.80
2019-05-06T14:05:25.066Z,3.02
2019-05-06T14:07:54.651Z,3.10
2019-05-06T14:10:24.482Z,2.77
2019-05-06T14:12:53.995Z,2.58
2019-05-06T14:15:23.543Z,2.00
2019-05-06T14:17:53.428Z,1.50
2019-05-06T14:20:23.468Z,1.90
2019-05-06T14:22:52.990Z,2.10
2019-05-06T14:25:52.858Z,1.90
2019-05-06T14:28:38.379Z,2.00
2019-05-06T14:31:13.190Z,2.27
2019-05-06T14:33:42.913Z,1.60
2019-05-06T14:36:12.809Z,1.77
2019-05-06T14:38:43.088Z,1.75
2019-05-06T14:41:16.462Z,1.67
2019-05-06T14:43:45.950Z,1.60
2019-05-06T14:46:15.473Z,1.37
2019-05-06T14:48:45.073Z,1.60
2019-05-06T14:51:14.914Z,1.60
2019-05-06T14:53:44.473Z,1.40
2019-05-06T14:56:32.134Z,1.97
2019-05-06T14:59:05.701Z,1.97
2019-05-06T15:01:36.191Z,2.00
2019-05-06T15:04:06.085Z,1.57
2019-05-06T15:06:36.878Z,1.60
2019-05-06T15:09:08.346Z,1.75
2019-05-06T15:11:37.872Z,1.83
2019-05-06T15:14:07.393Z,1.47
2019-05-06T15:16:36.994Z,1.87
2019-05-06T15:19:06.760Z,1.60
2019-05-06T15:21:38.751Z,2.25
2019-05-06T15:24:08.069Z,1.60
2019-05-06T15:26:37.566Z,1.97
2019-05-06T15:29:07.069Z,2.23
2019-05-06T15:31:53.340Z,1.90
2019-05-06T15:34:29.888Z,3.10
2019-05-06T15:37:06.859Z,1.80
2019-05-06T15:39:36.838Z,2.47
2019-05-06T15:42:07.197Z,2.30
2019-05-06T15:44:37.029Z,2.30
2019-05-06T15:47:06.893Z,2.37
2019-05-06T15:49:37.153Z,2.20
2019-05-06T15:52:07.246Z,1.77
2019-05-06T15:54:37.119Z,2.20
2019-05-06T15:57:06.949Z,2.65
2019-05-06T15:59:36.826Z,2.60
2019-05-06T16:02:07.280Z,2.40
2019-05-06T16:04:36.760Z,1.87
2019-05-06T16:07:06.312Z,1.80
2019-05-06T16:09:35.822Z,2.33
2019-05-06T16:12:05.328Z,1.80
2019-05-06T16:14:35.171Z,2.70
2019-05-06T16:17:04.736Z,2.03
2019-05-06T16:19:34.209Z,2.10
2019-05-06T16:22:04.338Z,2.10
2019-05-06T16:24:43.071Z,2.40
2019-05-06T16:27:12.386Z,2.30
2019-05-06T16:29:43.125Z,2.73
2019-05-06T16:32:12.715Z,1.80
2019-05-06T16:34:43.049Z,2.63
2019-05-06T16:37:13.760Z,3.47
2019-05-06T16:39:43.299Z,3.50
2019-05-06T16:42:13.117Z,2.40
2019-05-06T16:44:45.126Z,2.50
2019-05-06T16:47:33.064Z,2.27
2019-05-06T16:50:02.695Z,3.10
2019-05-06T16:52:33.350Z,2.50
2019-05-06T16:55:03.472Z,2.70
2019-05-06T16:57:33.383Z,3.13
2019-05-06T17:00:03.712Z,2.60
2019-05-06T17:02:56.530Z,3.90
2019-05-06T17:05:39.705Z,3.60
2019-05-06T17:08:09.233Z,3.43
2019-05-06T17:10:40.352Z,2.97
2019-05-06T17:13:09.905Z,3.43
2019-05-06T17:15:39.362Z,2.40
2019-05-06T17:18:08.918Z,2.73
2019-05-06T17:20:38.408Z,3.40
2019-05-06T17:23:07.903Z,3.23
2019-05-06T17:25:37.527Z,3.57
2019-05-06T17:28:23.346Z,3.07
2019-05-06T17:30:59.324Z,3.37
2019-05-06T17:33:42.638Z,2.90
2019-05-06T17:36:13.865Z,2.77
2019-05-06T17:38:46.214Z,3.47
2019-05-06T17:41:15.838Z,3.52
2019-05-06T17:43:45.464Z,2.87
2019-05-06T17:46:17.198Z,3.60
2019-05-06T17:48:52.864Z,3.30
2019-05-06T17:51:37.392Z,3.30
2019-05-06T17:54:06.285Z,3.60
2019-05-06T17:56:35.780Z,3.70
2019-05-06T17:59:05.431Z,3.90
2019-05-06T18:01:42.060Z,3.20
2019-05-06T18:04:12.571Z,4.03
2019-05-06T18:06:42.628Z,4.33
2019-05-06T18:09:13.172Z,4.20
2019-05-06T18:11:57.789Z,3.90
2019-05-06T18:14:15.647Z,3.15
2019-05-06T18:16:45.144Z,3.70
2019-05-06T18:19:14.631Z,2.67
2019-05-06T18:21:44.364Z,3.52
2019-05-06T18:24:13.882Z,2.50
2019-05-06T18:26:43.583Z,2.00
2019-05-06T18:29:13.095Z,2.60
2019-05-06T18:31:42.926Z,2.70
2019-05-06T18:34:13.020Z,3.03
2019-05-06T18:36:43.078Z,2.63
2019-05-06T18:39:12.809Z,2.80
2019-05-06T18:41:42.372Z,3.00
2019-05-06T18:44:12.833Z,3.20
2019-05-06T18:46:42.313Z,3.10
2019-05-06T18:49:13.078Z,2.40
2019-05-06T18:51:43.308Z,3.60
2019-05-06T18:54:12.834Z,2.87
2019-05-06T18:56:43.109Z,3.00
2019-05-06T18:59:12.658Z,3.60
2019-05-06T19:01:43.315Z,4.27
2019-05-06T19:04:33.432Z,4.70
2019-05-06T19:07:12.357Z,3.43
2019-05-06T19:09:43.404Z,3.73
2019-05-06T19:12:28.333Z,3.77
2019-05-06T19:14:44.359Z,3.87
2019-05-06T19:17:13.906Z,4.20
2019-05-06T19:19:43.385Z,4.17
2019-05-06T19:22:14.081Z,3.40
2019-05-06T19:24:44.653Z,3.73
2019-05-06T19:27:14.474Z,4.10
2019-05-06T19:29:44.057Z,4.57
2019-05-06T19:32:13.596Z,4.15
2019-05-06T19:34:43.083Z,3.47
2019-05-06T19:37:12.591Z,4.42
2019-05-06T19:39:43.056Z,4.00
2019-05-06T19:42:13.079Z,3.47
2019-05-06T19:44:45.066Z,4.03
2019-05-06T19:47:13.887Z,3.70
2019-05-06T19:49:43.387Z,4.10
2019-05-06T19:52:12.938Z,3.50
2019-05-06T19:54:42.572Z,4.03
2019-05-06T19:57:13.164Z,3.80
2019-05-06T19:59:43.291Z,4.37
2019-05-06T20:02:13.307Z,4.93
2019-05-06T20:04:44.683Z,4.63
2019-05-06T20:07:36.534Z,3.50
2019-05-06T20:10:26.668Z,4.53
2019-05-06T20:13:02.731Z,4.30
2019-05-06T20:15:37.756Z,5.07
2019-05-06T20:18:07.902Z,4.00
2019-05-06T20:20:38.027Z,3.97
2019-05-06T20:23:07.533Z,4.90
2019-05-06T20:25:37.433Z,3.63
2019-05-06T20:28:07.875Z,4.50
2019-05-06T20:30:37.378Z,5.00
2019-05-06T20:33:06.889Z,4.20
2019-05-06T20:35:36.467Z,4.83
2019-05-06T20:38:05.965Z,5.43
2019-05-06T20:40:38.114Z,5.53
2019-05-06T20:43:17.465Z,5.00
2019-05-06T20:45:38.074Z,5.22
2019-05-06T20:48:07.584Z,4.53
2019-05-06T20:50:37.060Z,4.80
2019-05-06T20:53:06.639Z,6.23
2019-05-06T20:55:36.415Z,5.42
2019-05-06T20:58:06.010Z,4.83
2019-05-06T21:00:35.483Z,5.17
2019-05-06T21:03:04.985Z,6.90
2019-05-06T21:05:34.474Z,5.13
2019-05-06T21:08:04.022Z,5.80
2019-05-06T21:10:33.514Z,5.70
2019-05-06T21:13:03.087Z,6.20
2019-05-06T21:15:32.698Z,5.33
2019-05-06T21:18:04.422Z,5.20
2019-05-06T21:20:33.405Z,4.35
2019-05-06T21:23:02.910Z,5.43
2019-05-06T21:25:32.421Z,5.65
2019-05-06T21:28:02.895Z,5.73
2019-05-06T21:30:33.025Z,4.33
2019-05-06T21:33:02.530Z,5.80
2019-05-06T21:35:33.192Z,5.53
2019-05-06T21:38:02.881Z,5.57
2019-05-06T21:40:32.550Z,4.57
2019-05-06T21:43:05.179Z,5.43
2019-05-06T21:45:34.679Z,5.70
2019-05-06T21:48:04.899Z,5.37
2019-05-06T21:50:34.674Z,4.70
2019-05-06T21:53:04.492Z,4.90
2019-05-06T21:55:33.975Z,6.30
2019-05-06T21:58:04.090Z,5.60
2019-05-06T22:00:56.591Z,5.10
2019-05-06T22:03:26.251Z,5.10
2019-05-06T22:05:55.764Z,4.67
2019-05-06T22:08:25.310Z,4.87
2019-05-06T22:10:54.789Z,5.10
2019-05-06T22:13:24.279Z,5.40
2019-05-06T22:15:53.764Z,5.30
2019-05-06T22:18:23.285Z,6.00
2019-05-06T22:21:10.460Z,5.58
2019-05-06T22:24:09.095Z,4.45
2019-05-06T22:26:38.851Z,5.50
2019-05-06T22:29:09.432Z,4.40
2019-05-06T22:31:38.915Z,5.10
2019-05-06T22:34:08.413Z,4.23
2019-05-06T22:36:37.881Z,4.53
2019-05-06T22:39:07.454Z,4.40
2019-05-06T22:41:38.638Z,3.67
2019-05-06T22:44:13.751Z,4.63
2019-05-06T22:46:39.341Z,5.33
2019-05-06T22:49:08.858Z,4.50
2019-05-06T22:51:38.363Z,4.40
2019-05-06T22:54:07.946Z,4.70
2019-05-06T22:56:37.498Z,4.27
2019-05-06T22:59:07.024Z,3.80
2019-05-06T23:01:58.809Z,4.77
2019-05-06T23:04:29.962Z,3.23
2019-05-06T23:06:59.447Z,3.73
2019-05-06T23:14:12.498Z,3.20
2019-05-06T23:16:42.588Z,3.40
2019-05-06T23:19:12.086Z,3.80
2019-05-06T23:21:43.103Z,3.80
2019-05-06T23:24:13.278Z,3.97
2019-05-06T23:26:43.835Z,4.50
2019-05-06T23:29:13.315Z,3.77
2019-05-06T23:31:43.122Z,4.00
2019-05-06T23:34:12.705Z,4.73
2019-05-06T23:37:22.875Z,4.35
2019-05-06T23:40:35.250Z,4.40
2019-05-06T23:43:42.719Z,4.13
2019-05-06T23:46:52.323Z,4.93
2019-05-06T23:49:57.997Z,3.77
2019-05-06T23:53:03.845Z,4.70
2019-05-06T23:56:09.900Z,3.75
2019-05-06T23:58:39.394Z,4.50
